Tropical Cyclones
[Index]
Main Index Home Page Stock Weather Photos Extreme Storms Discussion Storm News and Storm Chasing Reports Tropical Cyclones / Hurricanes / Typhoons Weather Data and Links Wild Fires / Bushfires Weather Observation Techniques Weather Picture Catalogue Tornado Pictures and Reports Stock Video Footage and DVDs for sale
Season 2003-2004 Tropical Cyclone GRACE Track Map
Season 2003-2004 Summaries (Operational Data): [AU] [SIO] [SPAC] [SH]
<<- Previous TC | 2003-2004 Season | Next TC ->>

click for intensity scale information  Lat/long Grid: Show Hide

 Date Labels: Show Hide

Operational Tropical Cyclone Data : JTWC Advisories

Name: GRACE
Number: 0419

18 Mar 2004 06:00 UTC to 24 Mar 2004 18:00 UTC

    date/time    lat    long     hPa   cat  kts
2004-03-18 06   14.5   145.5     998         30          
2004-03-18 12   15.0   145.5     998    1    40          
2004-03-18 18   14.5   145.5     996    1    40          
2004-03-19 00   15.5   145.3     997    1    40          
2004-03-19 06   15.5   145.3     995    1    40          
2004-03-19 12   16.5   146.5                 30          
2004-03-19 18   15.6   146.3     994         30          
2004-03-20 00   16.0   146.5     994    1    40          
2004-03-20 06   16.5   147.1     993    1    40          
2004-03-20 12   16.5   148.4     993    1    40          
2004-03-20 18   16.3   149.4     992    1    40          
2004-03-21 00   16.3   150.5     994    1    40          
2004-03-21 06   17.3   152.0     990    1    40          
2004-03-21 12   18.5   153.5     990    1    40          
2004-03-21 18   20.0   155.0     988    1    45          
2004-03-22 00   20.3   155.9     985    2    50          
2004-03-22 06   20.9   156.9     985    2    50          
2004-03-22 12   22.3   158.2     985    2    50          
2004-03-22 18   22.5   159.0     985    2    50          
2004-03-23 00   22.6   160.0     985    2    50          
2004-03-23 06   23.0   160.6     985    1    45          
2004-03-23 12   23.4   161.4     988    1    40          
2004-03-23 18   23.6   162.3     988    1    45          
2004-03-24 00   22.9   162.6     988    1    45          
2004-03-24 06   23.0   163.0     988    1    45          
2004-03-24 12   23.0   164.0     986    2    55          
2004-03-24 18   23.0   164.5     986    2    55          
Winds are 10-min average.

Tropical cyclone tracks developed by Michael Bath using operational warnings and advisories and Google Maps.


[Australian Severe Weather index] [Copyright Notice] [Email Contacts] [Search This Site] [Privacy Policy]
Document: tropical_cyclone_grace.htm Updated: 28 May 2013